Time;durP1;ratioP1;P1;durP2;ratioP2;P2;SDS_P1;SDS_P2;PMS_P1;PMS_P2;Temp;Humidity;BMP_temperature;BMP_pressure;BME280_temperature;BME280_humidity;BME280_pressure;Samples;Min_cycle;Max_cycle;Signal;HPM_P1;HPM_P2
2022/09/15 00:00:12;;;;;;;4.33;1.33;;;;;;;17.52;nan;99420.38;4969911;28;20518;-65
2022/09/15 00:02:38;;;;;;;1.63;1.20;;;;;;;17.54;nan;99406.75;4972048;28;20266;-65
2022/09/15 00:05:03;;;;;;;1.90;1.02;;;;;;;17.54;nan;99407.59;4959911;28;20031;-65
2022/09/15 00:07:30;;;;;;;1.15;0.90;;;;;;;17.58;nan;99405.28;4972120;28;20034;-65
2022/09/15 00:09:55;;;;;;;1.73;1.30;;;;;;;17.56;nan;99394.00;4975132;28;20261;-65
2022/09/15 00:12:21;;;;;;;2.05;1.10;;;;;;;17.55;nan;99390.50;4971412;28;20034;-65
2022/09/15 00:14:46;;;;;;;1.42;0.93;;;;;;;17.58;nan;99386.56;4975475;28;20427;-65
2022/09/15 00:17:11;;;;;;;1.33;1.00;;;;;;;17.59;nan;99381.00;4970131;28;20085;-65
2022/09/15 00:19:36;;;;;;;1.37;0.80;;;;;;;17.62;nan;99383.22;4973164;28;20293;-65
2022/09/15 00:22:02;;;;;;;1.47;0.80;;;;;;;17.65;nan;99384.63;4969051;28;20275;-67
2022/09/15 00:24:27;;;;;;;1.27;0.82;;;;;;;17.66;nan;99372.88;4964954;28;20274;-65
2022/09/15 00:26:52;;;;;;;;;;;;;;;17.68;nan;99375.34;4971749;28;20109;-65
2022/09/15 00:29:17;;;;;;;1.53;0.90;;;;;;;17.69;nan;99379.66;4970610;28;19965;-65
2022/09/15 00:31:43;;;;;;;2.15;1.13;;;;;;;17.68;nan;99383.34;4971344;28;20031;-65
2022/09/15 00:34:11;;;;;;;1.25;0.98;;;;;;;17.69;nan;99383.13;4969423;28;20050;-66
2022/09/15 00:36:36;;;;;;;1.42;1.00;;;;;;;17.69;nan;99393.84;4966729;28;20031;-65
2022/09/15 00:39:02;;;;;;;1.80;1.10;;;;;;;17.68;nan;99386.03;4969906;28;20042;-65
2022/09/15 00:41:28;;;;;;;1.80;1.10;;;;;;;17.68;nan;99380.69;4970941;28;20059;-65
2022/09/15 00:43:55;;;;;;;2.58;1.00;;;;;;;17.64;nan;99380.34;4971053;28;20043;-65
2022/09/15 00:46:26;;;;;;;2.10;1.30;;;;;;;17.65;nan;99378.47;4970527;28;20492;-65
2022/09/15 00:49:13;;;;;;;3.15;1.60;;;;;;;17.60;nan;99371.13;4970578;28;20280;-65
2022/09/15 00:51:53;;;;;;;4.65;1.65;;;;;;;17.55;nan;99371.78;4970502;28;20031;-65
2022/09/15 00:54:30;;;;;;;3.33;1.70;;;;;;;17.55;nan;99371.00;4961709;28;20027;-65
2022/09/15 00:57:00;;;;;;;3.30;1.73;;;;;;;17.51;nan;99375.16;4968921;28;20442;-65
2022/09/15 00:59:30;;;;;;;4.32;1.88;;;;;;;17.50;nan;99368.19;4967094;28;20038;-65
2022/09/15 01:02:01;;;;;;;;;;;;;;;17.50;nan;99368.19;4971071;28;20039;-65
2022/09/15 01:04:26;;;;;;;3.33;1.70;;;;;;;17.49;nan;99362.00;4968321;28;19918;-65
2022/09/15 01:06:57;;;;;;;2.77;1.80;;;;;;;17.58;nan;99366.00;4968826;28;20491;-65
2022/09/15 01:09:30;;;;;;;3.22;1.75;;;;;;;17.57;nan;99367.03;4970341;28;20039;-65
2022/09/15 01:11:56;;;;;;;5.53;2.20;;;;;;;17.58;nan;99365.19;4969516;28;20113;-65
2022/09/15 01:14:21;;;;;;;3.13;2.40;;;;;;;17.59;nan;99364.97;4967938;28;20563;-65
2022/09/15 01:16:52;;;;;;;5.50;2.53;;;;;;;17.65;nan;99359.75;4963688;28;20039;-65
2022/09/15 01:19:47;;;;;;;4.35;2.33;;;;;;;17.68;nan;99369.97;4970245;28;20290;-65
2022/09/15 01:22:42;;;;;;;3.67;2.22;;;;;;;17.71;nan;99364.19;4963082;28;20575;-65
2022/09/15 01:25:37;;;;;;;5.05;2.50;;;;;;;17.72;nan;99365.81;4948164;28;20045;-65
2022/09/15 01:28:35;;;;;;;3.97;2.20;;;;;;;17.75;nan;99366.16;4971335;28;20124;-65
2022/09/15 01:31:29;;;;;;;5.53;2.40;;;;;;;17.74;nan;99359.22;4969694;28;20042;-65
2022/09/15 01:34:04;;;;;;;4.32;3.00;;;;;;;17.76;nan;99361.66;4967621;28;20047;-65
2022/09/15 01:36:41;;;;;;;5.68;2.55;;;;;;;17.75;nan;99358.16;4970604;28;20134;-65
2022/09/15 01:39:14;;;;;;;4.30;2.65;;;;;;;17.77;nan;99358.75;4968559;28;20566;-65
2022/09/15 01:41:48;;;;;;;;;;;;;;;17.78;nan;99357.72;4970470;28;20043;-65
2022/09/15 01:44:28;;;;;;;;;;;;;;;17.75;nan;99352.00;4969916;28;19925;-66
2022/09/15 01:46:55;;;;;;;;;;;;;;;17.74;nan;99351.19;4971793;28;19925;-65
2022/09/15 01:49:25;;;;;;;;;;;;;;;17.76;nan;99348.28;4970546;28;19956;-65
2022/09/15 01:51:52;;;;;;;5.20;3.00;;;;;;;17.76;nan;99350.97;4970073;28;19922;-65
2022/09/15 01:54:20;;;;;;;;;;;;;;;17.77;nan;99344.56;4969523;28;20038;-65
2022/09/15 01:56:45;;;;;;;4.45;3.05;;;;;;;17.78;nan;99343.50;4975984;28;20406;-65
2022/09/15 01:59:11;;;;;;;5.95;3.38;;;;;;;17.77;nan;99347.25;4966716;28;20038;-65
2022/09/15 02:01:53;;;;;;;6.40;3.00;;;;;;;17.79;nan;99350.50;4967735;28;20456;-65
2022/09/15 02:04:33;;;;;;;5.30;3.10;;;;;;;17.78;nan;99347.03;4969415;28;20392;-65
2022/09/15 02:07:10;;;;;;;4.35;2.75;;;;;;;17.80;nan;99342.28;4973105;28;20069;-65
2022/09/15 02:09:43;;;;;;;5.07;2.72;;;;;;;17.80;nan;99344.09;4969200;28;20039;-65
2022/09/15 02:12:32;;;;;;;3.53;2.28;;;;;;;17.81;nan;99337.75;4969082;28;20097;-66
2022/09/15 02:15:02;;;;;;;5.00;2.67;;;;;;;17.78;nan;99339.00;4971215;28;20061;-65
2022/09/15 02:17:31;;;;;;;3.80;2.63;;;;;;;17.77;nan;99334.69;4970806;28;20428;-65
2022/09/15 02:20:08;;;;;;;3.80;2.47;;;;;;;17.79;nan;99331.78;4966379;28;20114;-65
2022/09/15 02:22:39;;;;;;;3.63;2.40;;;;;;;17.81;nan;99335.09;4963227;28;20056;-65
2022/09/15 02:25:08;;;;;;;4.30;2.22;;;;;;;17.80;nan;99336.94;4969224;28;20081;-65
2022/09/15 02:27:43;;;;;;;3.58;1.95;;;;;;;17.81;nan;99330.53;4967177;28;20039;-65
2022/09/15 02:30:10;;;;;;;;;;;;;;;17.80;nan;99331.59;4968903;28;20031;-66
2022/09/15 02:32:40;;;;;;;4.63;2.20;;;;;;;17.82;nan;99339.38;4968404;28;19917;-65
2022/09/15 02:35:08;;;;;;;3.92;2.10;;;;;;;17.80;nan;99328.06;4968995;28;20313;-65
2022/09/15 02:37:35;;;;;;;2.63;1.83;;;;;;;17.91;nan;99338.00;4967446;28;20412;-65
2022/09/15 02:40:02;;;;;;;2.75;1.98;;;;;;;17.87;nan;99336.81;4968815;28;20039;-65
2022/09/15 02:42:30;;;;;;;2.72;2.03;;;;;;;17.87;nan;99331.47;4964531;28;20042;-65
2022/09/15 02:44:56;;;;;;;3.38;2.00;;;;;;;17.85;nan;99333.56;4966658;28;20031;-65
2022/09/15 02:47:22;;;;;;;4.60;2.10;;;;;;;17.82;nan;99336.69;4964856;28;20510;-65
2022/09/15 02:49:47;;;;;;;2.83;2.03;;;;;;;17.77;nan;99333.88;4967650;28;20034;-65
2022/09/15 02:52:13;;;;;;;2.75;1.70;;;;;;;17.73;nan;99335.34;4967344;28;20035;-66
2022/09/15 02:54:38;;;;;;;3.85;2.10;;;;;;;17.72;nan;99334.56;4964083;28;20030;-65
2022/09/15 02:57:04;;;;;;;3.15;1.85;;;;;;;17.72;nan;99337.22;4966841;28;20038;-65
2022/09/15 03:00:11;;;;;;;3.38;2.00;;;;;;;17.72;nan;99331.06;4961721;28;20519;-65
2022/09/15 03:02:19;;;;;;;3.88;2.03;;;;;;;17.72;nan;99329.19;4967932;28;20034;-66
2022/09/15 03:04:48;;;;;;;4.55;1.83;;;;;;;17.68;nan;99338.72;4966752;28;20039;-65
2022/09/15 03:07:15;;;;;;;3.30;2.05;;;;;;;17.63;nan;99334.03;4960949;28;20082;-65
2022/09/15 03:09:40;;;;;;;4.07;2.00;;;;;;;17.64;nan;99337.56;4968139;28;20038;-65
2022/09/15 03:12:06;;;;;;;4.43;1.58;;;;;;;17.61;nan;99338.84;4968289;28;20146;-66
2022/09/15 03:14:31;;;;;;;2.35;1.60;;;;;;;17.60;nan;99336.38;4958982;28;20337;-66
2022/09/15 03:17:00;;;;;;;4.45;2.00;;;;;;;17.58;nan;99336.59;4968739;28;20035;-65
2022/09/15 03:19:25;;;;;;;3.70;1.90;;;;;;;17.58;nan;99338.44;4968047;28;20035;-65
2022/09/15 03:21:51;;;;;;;3.35;1.70;;;;;;;17.61;nan;99348.69;4967040;28;20161;-65
2022/09/15 03:24:18;;;;;;;5.00;2.08;;;;;;;17.56;nan;99345.88;4967618;28;20214;-65
2022/09/15 03:26:43;;;;;;;3.17;2.03;;;;;;;17.52;nan;99348.19;4970966;28;20050;-65
2022/09/15 03:29:09;;;;;;;3.05;1.92;;;;;;;17.50;nan;99346.81;4970607;28;20047;-65
2022/09/15 03:31:34;;;;;;;;;;;;;;;17.49;nan;99345.16;4973434;28;20085;-65
2022/09/15 03:33:59;;;;;;;3.70;1.87;;;;;;;17.48;nan;99344.34;4968433;28;19957;-65
2022/09/15 03:36:24;;;;;;;4.43;2.17;;;;;;;17.46;nan;99338.41;4972183;28;20077;-65
2022/09/15 03:38:50;;;;;;;3.08;2.22;;;;;;;17.49;nan;99337.13;4977397;28;20279;-65
2022/09/15 03:41:15;;;;;;;3.95;2.15;;;;;;;17.49;nan;99340.63;4972010;28;20500;-65
2022/09/15 03:43:40;;;;;;;3.07;1.87;;;;;;;17.51;nan;99337.72;4971979;28;20046;-65
2022/09/15 03:46:07;;;;;;;3.53;2.15;;;;;;;17.53;nan;99330.31;4971532;28;20286;-66
2022/09/15 03:48:34;;;;;;;4.05;2.30;;;;;;;17.53;nan;99336.47;4971920;28;20117;-65
2022/09/15 03:51:01;;;;;;;6.00;3.00;;;;;;;17.53;nan;99339.13;4971314;28;20039;-65
2022/09/15 03:53:26;;;;;;;4.97;2.30;;;;;;;17.51;nan;99338.53;4972105;28;20410;-65
2022/09/15 03:55:51;;;;;;;3.67;2.28;;;;;;;17.51;nan;99332.38;4966429;28;20046;-65
2022/09/15 03:58:17;;;;;;;3.97;2.50;;;;;;;17.49;nan;99329.94;4971244;28;20496;-65
2022/09/15 04:00:44;;;;;;;5.03;2.63;;;;;;;17.45;nan;99342.13;4971441;28;20046;-65
2022/09/15 04:03:10;;;;;;;3.60;2.47;;;;;;;17.43;nan;99362.91;4971817;28;20035;-65
2022/09/15 04:05:35;;;;;;;5.28;2.63;;;;;;;17.41;nan;99368.47;4971823;28;20389;-65
2022/09/15 04:08:01;;;;;;;3.47;2.60;;;;;;;17.44;nan;99367.22;4972189;28;20110;-65
2022/09/15 04:10:26;;;;;;;3.08;2.40;;;;;;;17.42;nan;99369.28;4971239;28;20049;-65
2022/09/15 04:12:52;;;;;;;4.88;2.50;;;;;;;17.41;nan;99378.34;4971951;28;20049;-65
2022/09/15 04:15:18;;;;;;;3.35;2.10;;;;;;;17.39;nan;99372.41;4971815;28;20062;-65
2022/09/15 04:17:44;;;;;;;3.15;2.03;;;;;;;17.31;nan;99373.53;4972012;28;20038;-65
2022/09/15 04:20:09;;;;;;;2.40;1.95;;;;;;;17.29;nan;99374.81;4972216;28;20638;-65
2022/09/15 04:22:34;;;;;;;2.80;1.67;;;;;;;17.29;nan;99377.47;4976480;28;20027;-65
2022/09/15 04:25:00;;;;;;;1.50;1.30;;;;;;;17.26;nan;99385.94;4973250;28;20031;-65
2022/09/15 04:27:25;;;;;;;2.93;1.70;;;;;;;17.24;nan;99396.84;4977436;28;20039;-65
2022/09/15 04:29:51;;;;;;;2.83;1.80;;;;;;;17.22;nan;99398.13;4970979;28;20309;-65
2022/09/15 04:32:17;;;;;;;2.30;1.55;;;;;;;17.11;nan;99394.31;4977807;28;20041;-65
2022/09/15 04:34:43;;;;;;;2.03;1.50;;;;;;;17.08;nan;99392.91;4979000;28;20599;-66
2022/09/15 04:37:09;;;;;;;1.98;1.40;;;;;;;17.07;nan;99398.47;4975100;28;20122;-65
2022/09/15 04:39:34;;;;;;;3.15;1.33;;;;;;;16.94;nan;99392.22;4971091;28;20514;-65
2022/09/15 04:42:03;;;;;;;2.15;1.33;;;;;;;16.92;nan;99398.81;4972735;28;20051;-65
2022/09/15 04:44:29;;;;;;;1.77;1.20;;;;;;;16.89;nan;99401.94;4971462;28;20419;-65
2022/09/15 04:46:54;;;;;;;;;;;;;;;16.88;nan;99405.66;4973938;28;20045;-65
2022/09/15 04:49:19;;;;;;;2.53;1.40;;;;;;;16.90;nan;99403.56;4971364;28;19926;-65
2022/09/15 04:51:44;;;;;;;2.58;1.48;;;;;;;16.95;nan;99409.09;4970786;28;20053;-65
2022/09/15 04:54:10;;;;;;;2.70;1.40;;;;;;;16.95;nan;99404.56;4971626;28;20043;-65
2022/09/15 04:56:37;;;;;;;2.60;1.55;;;;;;;16.94;nan;99416.25;4980944;28;20277;-66
2022/09/15 04:59:02;;;;;;;2.35;1.27;;;;;;;16.93;nan;99416.50;4973287;28;20110;-66
2022/09/15 05:01:32;;;;;;;2.30;1.55;;;;;;;16.93;nan;99421.84;4973165;28;20030;-66
2022/09/15 05:04:00;;;;;;;2.20;1.60;;;;;;;16.86;nan;99416.56;4973252;28;20027;-66
2022/09/15 05:06:26;;;;;;;2.08;1.60;;;;;;;16.81;nan;99426.25;4971346;28;20035;-65
2022/09/15 05:08:54;;;;;;;1.90;1.50;;;;;;;16.74;nan;99413.75;4973705;28;20034;-65
2022/09/15 05:11:20;;;;;;;2.95;1.30;;;;;;;16.64;nan;99410.78;4971050;28;20510;-65
2022/09/15 05:13:46;;;;;;;2.30;1.38;;;;;;;16.60;nan;99417.56;4972474;28;20042;-66
2022/09/15 05:16:12;;;;;;;2.45;1.40;;;;;;;16.57;nan;99420.69;4970639;28;20381;-66
2022/09/15 05:18:40;;;;;;;2.22;1.63;;;;;;;16.52;nan;99417.84;4966641;28;20126;-65
2022/09/15 05:21:07;;;;;;;2.20;1.70;;;;;;;16.49;nan;99421.78;4969963;28;20112;-65
2022/09/15 05:23:33;;;;;;;3.70;2.30;;;;;;;16.46;nan;99427.53;4970681;28;20459;-65
2022/09/15 05:26:00;;;;;;;2.33;1.88;;;;;;;16.49;nan;99434.28;4969464;28;20035;-65
2022/09/15 05:28:26;;;;;;;3.33;1.90;;;;;;;16.49;nan;99432.44;4969332;28;20058;-66
2022/09/15 05:30:53;;;;;;;3.65;2.50;;;;;;;16.51;nan;99435.69;4971021;28;20038;-65
2022/09/15 05:33:19;;;;;;;2.60;2.08;;;;;;;16.51;nan;99433.03;4970273;28;20047;-66
2022/09/15 05:35:53;;;;;;;3.22;2.72;;;;;;;16.49;nan;99442.28;4970916;28;20523;-65
2022/09/15 05:38:19;;;;;;;4.22;3.13;;;;;;;16.44;nan;99440.25;4962659;28;20034;-66
2022/09/15 05:40:44;;;;;;;5.10;4.00;;;;;;;16.35;nan;99436.22;4962590;28;20031;-65
2022/09/15 05:43:10;;;;;;;4.70;3.85;;;;;;;16.22;nan;99439.81;4965834;28;20109;-66
2022/09/15 05:45:35;;;;;;;5.68;4.57;;;;;;;16.20;nan;99441.06;4970322;28;20574;-65
2022/09/15 05:48:00;;;;;;;;;;;;;;;16.20;nan;99449.06;4983683;28;20198;-66
2022/09/15 05:50:26;;;;;;;6.63;4.75;;;;;;;16.18;nan;99451.13;4950193;28;20150;-65
2022/09/15 05:52:51;;;;;;;7.30;5.50;;;;;;;16.12;nan;99452.81;4956558;28;20030;-65
2022/09/15 05:55:16;;;;;;;7.03;6.25;;;;;;;16.11;nan;99444.00;4970054;28;20340;-65
2022/09/15 05:57:42;;;;;;;9.32;6.88;;;;;;;16.12;nan;99442.13;4969876;28;20109;-65
2022/09/15 06:00:08;;;;;;;11.25;7.40;;;;;;;16.08;nan;99457.75;4964954;28;20703;-65
2022/09/15 06:02:33;;;;;;;9.45;7.55;;;;;;;16.05;nan;99465.38;4963898;28;20027;-66
2022/09/15 06:04:58;;;;;;;10.02;7.97;;;;;;;16.02;nan;99457.78;4968335;28;20412;-65
2022/09/15 06:07:23;;;;;;;13.68;9.88;;;;;;;15.97;nan;99461.09;4969756;28;20034;-66
2022/09/15 06:09:49;;;;;;;12.77;9.75;;;;;;;15.91;nan;99468.09;4967769;28;20072;-66
2022/09/15 06:12:16;;;;;;;13.07;9.23;;;;;;;15.91;nan;99470.75;4961428;28;20034;-66
2022/09/15 06:14:43;;;;;;;13.00;9.48;;;;;;;15.91;nan;99478.75;4964947;28;20373;-66
2022/09/15 06:17:08;;;;;;;15.25;10.40;;;;;;;15.89;nan;99483.47;4969306;28;20114;-66
2022/09/15 06:19:34;;;;;;;21.50;13.83;;;;;;;15.81;nan;99489.06;4962592;28;20544;-65
2022/09/15 06:21:59;;;;;;;22.30;14.73;;;;;;;15.67;nan;99487.44;4968015;28;20262;-65
2022/09/15 06:24:24;;;;;;;20.23;14.07;;;;;;;15.66;nan;99493.78;4969926;28;20261;-65
2022/09/15 06:26:49;;;;;;;21.97;14.77;;;;;;;15.54;nan;99493.63;4967972;28;20051;-66
2022/09/15 06:29:15;;;;;;;21.93;13.90;;;;;;;15.47;nan;99491.00;4968923;28;20866;-66
2022/09/15 06:31:43;;;;;;;21.95;14.55;;;;;;;15.44;nan;99501.22;4969222;28;20277;-66
2022/09/15 06:34:11;;;;;;;;;;;;;;;15.45;nan;99503.69;4971794;28;20553;-66
2022/09/15 06:36:37;;;;;;;20.47;12.60;;;;;;;15.48;nan;99508.59;4976251;28;20012;-66
2022/09/15 06:39:03;;;;;;;13.52;9.35;;;;;;;15.50;nan;99517.19;4977452;28;20277;-66
2022/09/15 06:41:29;;;;;;;12.27;7.75;;;;;;;15.45;nan;99526.84;4969222;28;20089;-66
2022/09/15 06:43:55;;;;;;;6.85;5.22;;;;;;;15.45;nan;99533.00;4969987;28;20043;-66
2022/09/15 06:46:23;;;;;;;5.28;3.35;;;;;;;15.40;nan;99535.47;4969210;28;20035;-66
2022/09/15 06:48:50;;;;;;;4.68;2.53;;;;;;;15.32;nan;99541.00;4974251;28;20059;-66
2022/09/15 06:51:18;;;;;;;4.15;2.30;;;;;;;15.27;nan;99544.28;4969251;28;20038;-66
2022/09/15 06:53:43;;;;;;;3.53;2.20;;;;;;;15.28;nan;99550.44;4969028;28;20673;-65
2022/09/15 06:56:11;;;;;;;4.57;2.33;;;;;;;15.25;nan;99550.84;4973429;28;20110;-66
2022/09/15 06:58:38;;;;;;;3.15;2.17;;;;;;;15.25;nan;99550.84;4968136;28;20492;-65
2022/09/15 07:01:12;;;;;;;6.72;2.50;;;;;;;15.26;nan;99547.16;4970863;28;20463;-65
2022/09/15 07:03:39;;;;;;;4.70;2.30;;;;;;;15.18;nan;99558.84;4969040;28;20031;-65
2022/09/15 07:06:06;;;;;;;4.32;2.50;;;;;;;15.18;nan;99563.34;4971504;28;20035;-65
2022/09/15 07:08:32;;;;;;;3.95;2.20;;;;;;;15.18;nan;99558.00;4963016;28;20046;-65
2022/09/15 07:10:57;;;;;;;5.35;2.55;;;;;;;15.23;nan;99553.72;4963079;28;20126;-66
2022/09/15 07:13:23;;;;;;;3.38;2.20;;;;;;;15.33;nan;99552.50;4967354;28;20038;-65
2022/09/15 07:15:51;;;;;;;3.50;2.17;;;;;;;15.34;nan;99568.25;4968186;28;20034;-66
2022/09/15 07:18:16;;;;;;;4.35;2.60;;;;;;;15.32;nan;99569.47;4968449;28;20034;-66
2022/09/15 07:20:41;;;;;;;3.88;2.45;;;;;;;15.29;nan;99573.38;4968940;28;20046;-65
2022/09/15 07:23:07;;;;;;;5.28;2.40;;;;;;;15.26;nan;99579.13;4968954;28;20034;-65
2022/09/15 07:25:32;;;;;;;4.82;2.25;;;;;;;15.33;nan;99582.59;4968312;28;20499;-66
2022/09/15 07:27:58;;;;;;;5.70;2.67;;;;;;;15.35;nan;99587.72;4968467;28;20093;-66
2022/09/15 07:30:23;;;;;;;4.50;2.42;;;;;;;15.38;nan;99589.97;4964690;28;20055;-66
2022/09/15 07:32:48;;;;;;;5.03;2.73;;;;;;;15.40;nan;99588.75;4966226;28;20057;-66
2022/09/15 07:35:13;;;;;;;4.68;2.85;;;;;;;15.47;nan;99589.56;4967185;28;20282;-66
2022/09/15 07:37:39;;;;;;;4.97;2.50;;;;;;;15.64;nan;99599.78;4983522;28;20050;-65
2022/09/15 07:40:04;;;;;;;2.88;2.20;;;;;;;15.74;nan;99602.88;4967816;28;20042;-66
2022/09/15 07:42:31;;;;;;;3.90;2.50;;;;;;;15.77;nan;99605.13;4963265;28;20135;-66
2022/09/15 07:44:56;;;;;;;5.93;3.05;;;;;;;15.84;nan;99605.09;4968582;28;20070;-66
2022/09/15 07:47:22;;;;;;;3.85;2.17;;;;;;;15.98;nan;99606.72;4974507;28;20034;-66
2022/09/15 07:49:48;;;;;;;3.90;2.50;;;;;;;16.02;nan;99607.94;4968738;28;20046;-65
2022/09/15 07:52:13;;;;;;;3.15;2.30;;;;;;;16.14;nan;99611.59;4961507;28;20033;-66
2022/09/15 07:54:39;;;;;;;3.63;2.60;;;;;;;16.30;nan;99610.31;4968441;28;20038;-66
2022/09/15 07:57:05;;;;;;;3.58;2.30;;;;;;;16.44;nan;99623.56;4968215;28;20270;-66
2022/09/15 07:59:30;;;;;;;2.33;2.10;;;;;;;16.60;nan;99620.41;4968248;28;20097;-66
2022/09/15 08:01:55;;;;;;;3.10;2.20;;;;;;;16.67;nan;99626.53;4967800;28;20047;-66
2022/09/15 08:04:21;;;;;;;4.30;2.33;;;;;;;16.86;nan;99622.16;4975072;28;20035;-66
2022/09/15 08:06:46;;;;;;;3.67;2.05;;;;;;;17.04;nan;99621.44;4968452;28;20535;-66
2022/09/15 08:09:13;;;;;;;4.13;2.00;;;;;;;17.19;nan;99629.13;4968233;28;20039;-66
2022/09/15 08:11:40;;;;;;;3.70;2.00;;;;;;;17.42;nan;99625.84;4971897;28;20039;-66
2022/09/15 08:14:06;;;;;;;2.90;2.00;;;;;;;17.60;nan;99630.44;4969862;28;20445;-66
2022/09/15 08:16:31;;;;;;;4.03;2.08;;;;;;;17.88;nan;99629.97;4970358;28;20208;-66
2022/09/15 08:18:57;;;;;;;2.53;1.65;;;;;;;18.17;nan;99627.63;4969803;28;20522;-66
2022/09/15 08:21:23;;;;;;;2.95;1.70;;;;;;;18.47;nan;99641.03;4967615;28;20035;-66
2022/09/15 08:23:54;;;;;;;4.68;1.80;;;;;;;18.55;nan;99637.25;4968662;28;20031;-66
2022/09/15 08:26:20;;;;;;;3.45;1.70;;;;;;;18.44;nan;99634.25;4971822;28;20127;-66
2022/09/15 08:28:45;;;;;;;3.90;1.90;;;;;;;18.38;nan;99629.81;4970571;28;20114;-66
2022/09/15 08:31:12;;;;;;;2.53;1.70;;;;;;;18.39;nan;99634.13;4971991;28;20157;-66
2022/09/15 08:33:38;;;;;;;3.70;1.77;;;;;;;18.48;nan;99639.19;4971566;28;20294;-66
2022/09/15 08:36:07;;;;;;;3.22;1.80;;;;;;;18.67;nan;99640.78;4969415;28;20113;-66
2022/09/15 08:38:33;;;;;;;3.30;1.90;;;;;;;19.13;nan;99644.69;4964751;28;20035;-66
2022/09/15 08:41:03;;;;;;;3.00;1.98;;;;;;;19.53;nan;99649.41;4971755;28;20122;-66
2022/09/15 08:43:37;;;;;;;3.97;2.28;;;;;;;19.56;nan;99643.59;4965577;28;20035;-66
2022/09/15 08:46:08;;;;;;;3.55;2.03;;;;;;;19.53;nan;99649.41;4971447;28;20635;-67
2022/09/15 08:48:41;;;;;;;5.13;2.45;;;;;;;19.30;nan;99650.19;4972325;28;20121;-66
2022/09/15 08:51:14;;;;;;;4.43;2.45;;;;;;;19.29;nan;99646.72;4974134;28;20557;-66
2022/09/15 08:53:45;;;;;;;3.58;2.47;;;;;;;19.17;nan;99655.78;4986560;28;20043;-66
2022/09/15 08:56:16;;;;;;;4.80;2.90;;;;;;;18.89;nan;99658.00;4970967;28;20051;-66
2022/09/15 08:58:43;;;;;;;2.83;2.15;;;;;;;18.76;nan;99665.38;4969942;28;20047;-66
2022/09/15 09:01:33;;;;;;;2.65;2.03;;;;;;;18.84;nan;99659.75;4969310;28;20431;-66
2022/09/15 09:04:01;;;;;;;3.67;2.67;;;;;;;18.75;nan;99663.75;4968972;28;20082;-66
2022/09/15 09:06:56;;;;;;;5.10;2.38;;;;;;;18.73;nan;99663.16;4962056;28;20408;-66
2022/09/15 09:09:49;;;;;;;3.30;2.10;;;;;;;18.86;nan;99655.00;4957764;28;20133;-66
2022/09/15 09:12:31;;;;;;;3.22;1.88;;;;;;;18.99;nan;99656.66;4962899;28;20042;-66
2022/09/15 09:15:15;;;;;;;4.97;2.65;;;;;;;18.88;nan;99664.44;4968601;28;20459;-66
2022/09/15 09:18:11;;;;;;;3.33;2.00;;;;;;;19.02;nan;99657.03;4971417;28;20627;-66
2022/09/15 09:20:50;;;;;;;3.20;2.00;;;;;;;19.26;nan;99660.56;4969052;28;20098;-66
2022/09/15 09:23:20;;;;;;;4.72;2.30;;;;;;;19.44;nan;99672.25;4963665;28;20031;-66
2022/09/15 09:25:46;;;;;;;6.07;2.88;;;;;;;19.55;nan;99678.69;4969504;28;20515;-66
2022/09/15 09:28:41;;;;;;;5.78;2.58;;;;;;;19.54;nan;99685.91;4969062;28;20125;-66
2022/09/15 09:31:16;;;;;;;5.47;2.00;;;;;;;19.64;nan;99677.28;4970051;28;20039;-67
2022/09/15 09:34:08;;;;;;;3.75;2.00;;;;;;;19.68;nan;99673.13;4978347;28;20117;-66
2022/09/15 09:36:34;;;;;;;3.05;2.03;;;;;;;19.56;nan;99673.09;4965202;28;20090;-66
2022/09/15 09:39:01;;;;;;;2.72;1.67;;;;;;;19.30;nan;99679.69;4970154;28;20050;-66
2022/09/15 09:41:34;;;;;;;6.18;1.45;;;;;;;19.12;nan;99675.22;4965537;28;20190;-66
2022/09/15 09:44:01;;;;;;;3.08;1.30;;;;;;;18.94;nan;99676.09;4970768;28;20071;-66
2022/09/15 09:46:27;;;;;;;2.80;1.33;;;;;;;18.89;nan;99673.28;4964540;28;20105;-66
2022/09/15 09:49:10;;;;;;;1.85;1.20;;;;;;;18.83;nan;99672.34;4962233;28;20131;-66
2022/09/15 09:51:47;;;;;;;4.07;1.40;;;;;;;18.79;nan;99675.69;4971285;28;20039;-66
2022/09/15 09:54:15;;;;;;;2.88;1.25;;;;;;;18.88;nan;99677.81;4962225;28;20046;-66
2022/09/15 09:56:43;;;;;;;2.17;1.10;;;;;;;19.07;nan;99673.22;4970761;28;20050;-66
2022/09/15 09:59:38;;;;;;;3.40;1.38;;;;;;;19.31;nan;99679.47;4967392;28;20037;-66
2022/09/15 10:02:14;;;;;;;2.65;1.50;;;;;;;19.45;nan;99681.91;4970758;28;20626;-67
2022/09/15 10:04:45;;;;;;;3.58;1.73;;;;;;;19.35;nan;99689.72;4968816;28;20067;-66
2022/09/15 10:07:11;;;;;;;;;;;;;;;19.19;nan;99688.53;4969986;28;20042;-66
2022/09/15 10:09:37;;;;;;;2.97;1.40;;;;;;;19.20;nan;99690.16;4969612;28;20339;-66
2022/09/15 10:12:04;;;;;;;2.83;1.38;;;;;;;19.26;nan;99686.56;4969356;28;20046;-66
2022/09/15 10:14:31;;;;;;;3.33;1.75;;;;;;;19.16;nan;99692.47;4967171;28;20031;-66
2022/09/15 10:17:08;;;;;;;6.22;2.35;;;;;;;19.00;nan;99696.63;4969596;28;20527;-66
2022/09/15 10:19:44;;;;;;;4.28;1.88;;;;;;;18.72;nan;99696.34;4969731;28;20495;-66
2022/09/15 10:22:28;;;;;;;3.00;1.60;;;;;;;18.63;nan;99699.31;4969966;28;20042;-66
2022/09/15 10:24:53;;;;;;;2.65;1.73;;;;;;;18.62;nan;99707.59;4970053;28;20039;-66
2022/09/15 10:27:26;;;;;;;4.72;1.90;;;;;;;18.74;nan;99704.97;4970982;28;20034;-66
2022/09/15 10:29:51;;;;;;;3.97;1.85;;;;;;;18.67;nan;99710.41;4969488;28;20575;-66
2022/09/15 10:32:27;;;;;;;4.95;1.95;;;;;;;18.60;nan;99709.69;4970215;28;20071;-66
2022/09/15 10:35:10;;;;;;;4.07;1.70;;;;;;;18.60;nan;99713.16;4969267;28;20451;-66
2022/09/15 10:37:49;;;;;;;3.10;2.00;;;;;;;18.49;nan;99719.25;4969360;28;20031;-66
2022/09/15 10:40:38;;;;;;;3.70;2.05;;;;;;;18.31;nan;99719.28;4968589;28;20500;-66
2022/09/15 10:43:41;;;;;;;2.88;1.80;;;;;;;18.25;nan;99727.13;4967706;28;20499;-66
2022/09/15 10:46:25;;;;;;;4.95;2.50;;;;;;;18.21;nan;99728.63;4970873;28;20084;-67
2022/09/15 10:49:17;;;;;;;3.17;1.88;;;;;;;18.11;nan;99730.16;4969172;28;20030;-67
2022/09/15 10:52:06;;;;;;;6.00;2.40;;;;;;;17.98;nan;99729.25;4964091;28;20491;-66
2022/09/15 10:55:18;;;;;;;3.78;2.13;;;;;;;17.88;nan;99730.81;4956793;28;20331;-66
2022/09/15 10:57:59;;;;;;;3.95;1.67;;;;;;;17.97;nan;99724.94;4943429;28;20475;-66
2022/09/15 11:00:31;;;;;;;3.70;2.17;;;;;;;18.15;nan;99726.81;4948363;28;20039;-67
2022/09/15 11:03:15;;;;;;;3.65;1.50;;;;;;;18.18;nan;99730.91;4967363;28;20583;-66
2022/09/15 11:06:02;;;;;;;2.42;1.60;;;;;;;18.34;nan;99719.63;4966187;28;20416;-66
2022/09/15 11:08:54;;;;;;;4.30;1.50;;;;;;;18.44;nan;99716.44;4969120;28;20053;-66
2022/09/15 11:11:43;;;;;;;2.78;1.30;;;;;;;18.54;nan;99715.91;4952373;28;20066;-66
2022/09/15 11:14:17;;;;;;;3.97;1.50;;;;;;;19.48;nan;99721.69;4967454;28;20039;-67
2022/09/15 11:17:13;;;;;;;2.97;1.40;;;;;;;20.20;nan;99724.22;4967200;28;20040;-66
2022/09/15 11:20:02;;;;;;;3.35;1.55;;;;;;;20.87;nan;99728.31;4963095;28;20035;-66
2022/09/15 11:22:38;;;;;;;3.88;1.48;;;;;;;21.63;nan;99728.91;4962185;28;20050;-67
2022/09/15 11:25:18;;;;;;;3.28;1.40;;;;;;;22.53;nan;99728.91;4968302;28;20118;-67
2022/09/15 11:27:46;;;;;;;2.25;1.23;;;;;;;24.31;nan;99712.72;4965664;28;20075;-67
2022/09/15 11:30:16;;;;;;;2.60;1.40;;;;;;;23.89;nan;99724.38;4967526;28;20049;-67
2022/09/15 11:32:48;;;;;;;3.75;1.30;;;;;;;22.91;nan;99725.31;4967921;28;20500;-67
2022/09/15 11:35:33;;;;;;;3.15;1.33;;;;;;;22.90;nan;99721.78;4966501;28;20042;-67
2022/09/15 11:38:27;;;;;;;3.53;1.20;;;;;;;24.98;nan;99730.06;4967575;28;20295;-67
2022/09/15 11:41:22;;;;;;;1.63;1.02;;;;;;;25.77;nan;99736.13;4941819;28;20127;-67
2022/09/15 11:44:12;;;;;;;1.83;0.93;;;;;;;25.36;nan;99736.09;4966865;28;20228;-68
2022/09/15 11:47:12;;;;;;;3.55;1.20;;;;;;;25.18;nan;99738.25;4968851;28;20031;-68
2022/09/15 11:49:49;;;;;;;2.28;0.90;;;;;;;24.40;nan;99734.66;4968323;28;20058;-67
2022/09/15 11:53:05;;;;;;;2.35;0.90;;;;;;;23.98;nan;99736.31;4970050;28;20034;-67
2022/09/15 11:55:48;;;;;;;1.67;1.08;;;;;;;23.82;nan;99731.88;4957506;28;20400;-67
2022/09/15 11:58:29;;;;;;;2.03;1.08;;;;;;;22.85;nan;99739.78;4965520;28;20035;-67
2022/09/15 12:01:07;;;;;;;5.32;1.40;;;;;;;22.73;nan;99733.72;4967897;28;20043;-67
2022/09/15 12:03:45;;;;;;;3.83;1.60;;;;;;;23.01;nan;99736.25;4971185;28;20066;-67
2022/09/15 12:06:19;;;;;;;3.47;1.10;;;;;;;23.58;nan;99737.59;4970161;28;20435;-67
2022/09/15 12:08:56;;;;;;;2.13;1.17;;;;;;;23.93;nan;99742.50;4971614;28;20046;-67
2022/09/15 12:11:24;;;;;;;3.45;1.75;;;;;;;23.59;nan;99738.41;4971172;28;20034;-68